createdAt,value
2022-08-01T00:01:28.586Z,10.82
2022-08-01T00:06:59.131Z,9.20
2022-08-01T00:12:28.573Z,10.70
2022-08-01T00:17:57.600Z,13.35
2022-08-01T00:23:28.930Z,14.43
2022-08-01T00:28:57.675Z,12.10
2022-08-01T00:34:26.628Z,6.35
2022-08-01T00:39:57.279Z,3.17
2022-08-01T00:45:26.927Z,8.50
2022-08-01T00:50:57.049Z,10.25
2022-08-01T00:56:29.260Z,6.47
2022-08-01T01:01:58.413Z,14.25
2022-08-01T01:07:34.664Z,18.15
2022-08-01T01:13:09.037Z,19.25
2022-08-01T01:18:44.775Z,20.25
2022-08-01T01:24:23.524Z,15.68
2022-08-01T01:29:59.611Z,11.88
2022-08-01T01:35:34.062Z,14.37
2022-08-01T01:41:05.933Z,8.80
2022-08-01T01:46:38.733Z,11.77
2022-08-01T01:52:09.811Z,7.70
2022-08-01T01:57:42.808Z,3.85
2022-08-01T02:03:15.800Z,4.05
2022-08-01T02:08:46.449Z,5.60
2022-08-01T02:14:17.595Z,7.25
2022-08-01T02:19:48.474Z,5.80
2022-08-01T02:25:23.694Z,4.47
2022-08-01T02:30:52.602Z,16.60
2022-08-01T02:42:05.695Z,7.07
2022-08-01T02:47:35.792Z,4.28
2022-08-01T02:53:08.283Z,5.18
2022-08-01T02:58:39.141Z,5.30
2022-08-01T03:04:09.980Z,5.53
2022-08-01T03:09:44.408Z,12.30
2022-08-01T03:15:16.079Z,6.03
2022-08-01T03:20:47.860Z,7.22
2022-08-01T03:26:19.976Z,7.45
2022-08-01T03:31:51.129Z,6.90
2022-08-01T03:37:25.681Z,5.78
2022-08-01T03:43:00.523Z,8.73
2022-08-01T03:48:35.157Z,9.52
2022-08-01T03:54:06.072Z,7.75
2022-08-01T03:59:37.653Z,10.82
2022-08-01T04:05:08.258Z,5.82
2022-08-01T04:10:39.562Z,5.60
2022-08-01T04:16:09.856Z,6.85
2022-08-01T04:21:39.914Z,5.07
2022-08-01T04:27:14.264Z,4.10
2022-08-01T04:32:47.406Z,7.35
2022-08-01T04:38:24.204Z,3.15
2022-08-01T04:43:55.397Z,16.42
2022-08-01T04:49:26.114Z,5.55
2022-08-01T04:54:55.133Z,4.32
2022-08-01T05:00:24.523Z,7.95
2022-08-01T05:11:24.281Z,8.65
2022-08-01T05:16:53.674Z,6.68
2022-08-01T05:22:26.068Z,11.85
2022-08-01T05:27:55.282Z,9.95
2022-08-01T05:33:24.635Z,7.90
2022-08-01T05:38:54.534Z,7.00
2022-08-01T05:44:23.338Z,11.07
2022-08-01T05:49:52.376Z,13.68
2022-08-01T05:55:22.897Z,7.63
2022-08-01T06:00:52.482Z,8.40
2022-08-01T06:06:21.312Z,6.32
2022-08-01T06:11:55.930Z,6.97
2022-08-01T06:17:25.562Z,6.63
2022-08-01T06:28:24.906Z,6.07
2022-08-01T06:33:54.426Z,9.43
2022-08-01T06:39:23.465Z,8.13
2022-08-01T06:50:21.983Z,8.38
2022-08-01T06:55:51.426Z,7.68
2022-08-01T07:01:21.837Z,4.45
2022-08-01T07:06:51.513Z,15.05
2022-08-01T07:12:20.555Z,9.88
2022-08-01T07:17:50.898Z,10.35
2022-08-01T07:23:22.576Z,10.10
2022-08-01T07:28:52.317Z,4.78
2022-08-01T07:34:23.666Z,6.13
2022-08-01T07:39:52.297Z,10.25
2022-08-01T07:45:22.001Z,17.98
2022-08-01T07:50:52.512Z,14.82
2022-08-01T07:56:21.320Z,10.93
2022-08-01T08:01:50.399Z,13.13
2022-08-01T08:07:21.271Z,16.08
2022-08-01T08:12:50.901Z,14.98
2022-08-01T08:18:20.500Z,8.23
2022-08-01T08:24:09.031Z,13.50
2022-08-01T08:29:39.368Z,6.25
2022-08-01T08:35:12.371Z,8.32
2022-08-01T08:40:44.358Z,6.93
2022-08-01T08:46:14.743Z,11.55
2022-08-01T08:51:45.895Z,10.68
2022-08-01T08:57:17.716Z,11.18
2022-08-01T09:02:48.293Z,5.97
2022-08-01T09:08:18.469Z,10.52
2022-08-01T09:14:04.342Z,6.38
2022-08-01T09:19:41.553Z,13.05
2022-08-01T09:25:12.532Z,9.52
2022-08-01T09:30:42.801Z,9.80
2022-08-01T09:36:13.137Z,9.38
2022-08-01T09:41:42.813Z,4.90
2022-08-01T09:47:15.806Z,11.75
2022-08-01T09:52:57.108Z,13.98
2022-08-01T09:58:26.334Z,12.80
2022-08-01T10:04:09.856Z,13.82
2022-08-01T10:09:41.168Z,5.75
2022-08-01T10:15:11.690Z,7.80
2022-08-01T10:20:43.948Z,30.15
2022-08-01T10:26:14.805Z,10.52
2022-08-01T10:31:44.456Z,9.52
2022-08-01T10:37:21.179Z,20.80
2022-08-01T10:42:50.420Z,25.00
2022-08-01T10:48:24.772Z,12.10
2022-08-01T10:53:58.388Z,10.35
2022-08-01T10:59:51.112Z,10.55
2022-08-01T11:05:24.124Z,11.68
2022-08-01T11:11:02.429Z,10.13
2022-08-01T11:16:32.494Z,7.70
2022-08-01T11:22:03.561Z,8.95
2022-08-01T11:27:34.998Z,6.75
2022-08-01T11:33:10.828Z,8.35
2022-08-01T11:38:43.553Z,8.35
2022-08-01T11:44:20.889Z,6.70
2022-08-01T11:49:56.105Z,9.68
2022-08-01T11:55:25.785Z,12.30
2022-08-01T12:01:02.208Z,6.80
2022-08-01T12:06:31.276Z,6.05
2022-08-01T12:11:59.989Z,8.05
2022-08-01T12:17:38.310Z,8.07
2022-08-01T12:23:08.709Z,8.98
2022-08-01T12:28:42.579Z,8.13
2022-08-01T12:34:29.955Z,9.82
2022-08-01T12:39:59.672Z,8.30
2022-08-01T12:45:32.944Z,13.35
2022-08-01T12:51:05.329Z,10.43
2022-08-01T12:56:35.283Z,13.77
2022-08-01T13:02:12.138Z,16.90
2022-08-01T13:07:46.137Z,12.18
2022-08-01T13:13:22.343Z,23.20
2022-08-01T13:18:58.440Z,14.77
2022-08-01T13:24:30.182Z,15.57
2022-08-01T13:30:12.943Z,11.90
2022-08-01T13:35:42.966Z,17.20
2022-08-01T13:41:13.745Z,22.00
2022-08-01T13:46:49.235Z,13.18
2022-08-01T13:52:20.533Z,17.25
2022-08-01T13:57:51.143Z,26.73
2022-08-01T14:03:20.995Z,11.23
2022-08-01T14:09:02.201Z,13.50
2022-08-01T14:14:48.580Z,16.13
2022-08-01T14:20:20.735Z,28.15
2022-08-01T14:26:03.262Z,21.88
2022-08-01T14:31:37.796Z,13.85
2022-08-01T14:37:07.145Z,17.52
2022-08-01T14:42:37.544Z,18.58
2022-08-01T14:48:08.294Z,19.95
2022-08-01T14:53:37.862Z,26.42
2022-08-01T14:59:21.523Z,23.15
2022-08-01T15:04:52.902Z,17.25
2022-08-01T15:10:23.836Z,16.60
2022-08-01T15:15:53.220Z,33.65
2022-08-01T15:21:40.155Z,49.47
2022-08-01T15:27:12.150Z,28.87
2022-08-01T15:32:41.050Z,19.95
2022-08-01T15:38:11.987Z,10.30
2022-08-01T15:43:43.181Z,13.48
2022-08-01T15:49:14.467Z,12.00
2022-08-01T15:54:45.534Z,11.55
2022-08-01T16:00:16.703Z,14.10
2022-08-01T16:05:46.446Z,10.23
2022-08-01T16:11:17.693Z,6.50
2022-08-01T16:16:48.131Z,5.82
2022-08-01T16:22:17.396Z,12.32
2022-08-01T16:27:47.561Z,10.25
2022-08-01T16:33:17.107Z,6.65
2022-08-01T16:39:07.576Z,4.97
2022-08-01T16:44:38.318Z,5.38
2022-08-01T16:50:09.548Z,6.30
2022-08-01T16:55:49.286Z,9.57
2022-08-01T17:02:00.503Z,18.05
2022-08-01T17:07:11.492Z,6.97
2022-08-01T17:12:42.265Z,7.72
2022-08-01T17:18:12.153Z,9.15
2022-08-01T17:23:42.169Z,10.57
2022-08-01T17:29:10.757Z,6.05
2022-08-01T17:34:41.973Z,4.63
2022-08-01T17:40:38.724Z,3.47
2022-08-01T17:46:01.097Z,3.85
2022-08-01T17:51:31.534Z,3.95
2022-08-01T17:57:01.348Z,3.53
2022-08-01T18:02:30.016Z,3.55
2022-08-01T18:08:02.484Z,3.72
2022-08-01T18:13:32.152Z,3.30
2022-08-01T18:19:00.808Z,2.40
2022-08-01T18:24:31.664Z,3.92
2022-08-01T18:30:00.834Z,3.75
2022-08-01T18:35:52.465Z,6.00
2022-08-01T18:41:21.584Z,5.65
2022-08-01T18:46:50.912Z,6.10
2022-08-01T18:52:21.135Z,3.65
2022-08-01T18:57:59.447Z,3.58
2022-08-01T19:03:29.231Z,8.55
2022-08-01T19:09:02.051Z,11.75
2022-08-01T19:14:32.441Z,5.70
2022-08-01T19:20:02.006Z,5.03
2022-08-01T19:25:31.361Z,4.47
2022-08-01T19:31:26.783Z,5.03
2022-08-01T19:36:58.016Z,6.07
2022-08-01T19:42:27.510Z,5.05
2022-08-01T19:47:58.523Z,9.80
2022-08-01T19:53:28.029Z,12.70
2022-08-01T19:59:00.022Z,14.05
2022-08-01T20:04:31.242Z,4.38
2022-08-01T20:10:00.985Z,8.88
2022-08-01T20:15:30.382Z,4.10
2022-08-01T20:21:03.215Z,4.45
2022-08-01T20:26:32.812Z,5.68
2022-08-01T20:32:03.615Z,6.93
2022-08-01T20:38:05.620Z,13.43
2022-08-01T20:43:27.693Z,13.23
2022-08-01T20:48:59.144Z,10.93
2022-08-01T20:54:29.758Z,12.32
2022-08-01T21:00:03.101Z,8.10
2022-08-01T21:05:33.157Z,8.32
2022-08-01T21:11:04.562Z,36.03
2022-08-01T21:16:39.526Z,27.83
2022-08-01T21:22:17.608Z,32.78
2022-08-01T21:27:57.270Z,32.03
2022-08-01T21:33:27.024Z,11.70
2022-08-01T21:38:58.271Z,6.28
2022-08-01T21:44:31.155Z,5.47
2022-08-01T21:50:03.543Z,6.50
2022-08-01T21:55:37.663Z,11.05
2022-08-01T22:01:33.660Z,6.63
2022-08-01T22:07:23.423Z,5.63
2022-08-01T22:12:53.824Z,6.13
2022-08-01T22:18:24.459Z,8.30
2022-08-01T22:23:54.844Z,6.00
2022-08-01T22:29:28.932Z,6.07
2022-08-01T22:35:00.842Z,6.32
2022-08-01T22:40:33.536Z,6.57
2022-08-01T22:46:16.642Z,6.95
2022-08-01T22:51:58.991Z,9.85
2022-08-01T22:57:31.937Z,8.27
2022-08-01T23:03:08.077Z,8.98
2022-08-01T23:08:40.762Z,7.00
2022-08-01T23:14:11.226Z,4.55
2022-08-01T23:19:41.137Z,5.40
2022-08-01T23:25:13.302Z,3.35
2022-08-01T23:30:44.376Z,3.03
2022-08-01T23:36:14.730Z,5.63
2022-08-01T23:41:57.417Z,5.32
2022-08-01T23:47:27.887Z,12.95
2022-08-01T23:58:26.876Z,48.00
